Time;durP1;ratioP1;P1;durP2;ratioP2;P2;SDS_P1;SDS_P2;PMS_P1;PMS_P2;Temp;Humidity;BMP_temperature;BMP_pressure;BME280_temperature;BME280_humidity;BME280_pressure;Samples;Min_cycle;Max_cycle;Signal;HPM_P1;HPM_P2
2023/12/06 00:01:44;;;;;;;4.82;3.95;;;19.80;32.40;;;;;;5035731;28;20066;-49
2023/12/06 00:04:10;;;;;;;4.80;3.70;;;19.80;32.30;;;;;;5035154;28;20029;-48
2023/12/06 00:06:36;;;;;;;3.80;3.28;;;19.80;32.40;;;;;;5034390;28;20034;-52
2023/12/06 00:09:02;;;;;;;4.45;3.80;;;19.80;32.40;;;;;;5035093;28;20033;-51
2023/12/06 00:11:28;;;;;;;4.68;3.10;;;19.80;32.40;;;;;;5035713;28;20120;-51
2023/12/06 00:13:53;;;;;;;4.43;3.33;;;19.80;32.40;;;;;;5035309;28;20025;-49
2023/12/06 00:16:20;;;;;;;4.30;3.47;;;19.80;32.40;;;;;;5035066;28;20033;-54
2023/12/06 00:18:45;;;;;;;3.90;3.45;;;19.80;32.40;;;;;;5016209;28;20126;-53
2023/12/06 00:21:12;;;;;;;4.80;3.85;;;19.80;32.40;;;;;;5035290;28;20049;-47
2023/12/06 00:23:37;;;;;;;3.72;3.22;;;19.80;32.40;;;;;;5034789;28;20022;-46
2023/12/06 00:26:03;;;;;;;3.75;3.30;;;19.80;32.40;;;;;;5035093;28;20029;-51
2023/12/06 00:28:29;;;;;;;4.32;3.60;;;19.70;32.30;;;;;;5000546;28;20075;-47
2023/12/06 00:30:55;;;;;;;4.35;3.20;;;19.70;32.30;;;;;;5035222;28;20073;-54
2023/12/06 00:33:21;;;;;;;4.38;3.55;;;19.70;32.40;;;;;;5034597;28;20333;-48
2023/12/06 00:35:47;;;;;;;4.25;3.53;;;19.70;32.40;;;;;;5035152;28;20025;-48
2023/12/06 00:38:14;;;;;;;3.53;3.15;;;19.70;32.40;;;;;;5034658;28;20052;-51
2023/12/06 00:40:41;;;;;;;3.90;3.30;;;19.70;32.40;;;;;;5035248;28;20026;-50
2023/12/06 00:43:06;;;;;;;3.75;2.92;;;19.70;32.40;;;;;;5038809;28;20037;-48
2023/12/06 00:45:33;;;;;;;3.90;3.30;;;19.70;32.40;;;;;;5045321;28;20043;-48
2023/12/06 00:47:59;;;;;;;7.63;3.28;;;19.60;32.30;;;;;;5040566;28;20052;-50
2023/12/06 00:50:25;;;;;;;5.22;3.50;;;19.70;32.40;;;;;;5025053;28;20131;-51
2023/12/06 00:52:52;;;;;;;4.00;3.45;;;19.70;32.40;;;;;;5045728;28;20108;-50
2023/12/06 00:55:18;;;;;;;3.72;3.00;;;19.60;32.40;;;;;;5051780;28;20032;-53
2023/12/06 00:57:44;;;;;;;3.50;2.90;;;19.60;32.30;;;;;;5048679;28;20029;-52
2023/12/06 01:00:10;;;;;;;3.50;3.08;;;19.70;32.40;;;;;;5047172;28;20053;-50
2023/12/06 01:02:38;;;;;;;3.53;2.83;;;19.60;32.30;;;;;;5044987;28;20021;-50
2023/12/06 01:05:05;;;;;;;3.97;3.03;;;19.60;32.40;;;;;;5049206;28;20063;-49
2023/12/06 01:07:31;;;;;;;3.17;2.88;;;19.60;32.40;;;;;;5040817;28;20087;-49
2023/12/06 01:09:57;;;;;;;3.72;3.08;;;19.60;32.40;;;;;;5037100;28;20041;-51
2023/12/06 01:12:22;;;;;;;3.78;3.05;;;19.60;32.40;;;;;;5042017;28;20054;-53
2023/12/06 01:14:49;;;;;;;3.80;3.20;;;19.60;32.40;;;;;;5053221;28;20029;-53
2023/12/06 01:17:14;;;;;;;4.07;2.97;;;19.60;32.40;;;;;;5043967;28;20439;-52
2023/12/06 01:19:40;;;;;;;3.40;2.80;;;19.50;32.40;;;;;;5029210;28;20040;-49
2023/12/06 01:22:06;;;;;;;3.22;2.88;;;19.60;32.50;;;;;;5002683;28;20029;-47
2023/12/06 01:24:32;;;;;;;3.97;3.10;;;19.50;32.40;;;;;;5039359;28;20390;-46
2023/12/06 01:26:58;;;;;;;4.20;3.15;;;19.50;32.40;;;;;;5043655;28;20030;-50
2023/12/06 01:29:24;;;;;;;3.65;2.85;;;19.50;32.50;;;;;;5041198;28;20017;-54
2023/12/06 01:31:49;;;;;;;4.28;3.28;;;19.50;32.50;;;;;;5034349;28;20053;-49
2023/12/06 01:34:15;;;;;;;4.10;3.20;;;19.50;32.50;;;;;;5042102;28;20033;-50
2023/12/06 01:36:41;;;;;;;3.38;2.92;;;19.50;32.50;;;;;;5048289;28;20442;-50
2023/12/06 01:39:08;;;;;;;3.85;2.88;;;19.50;32.50;;;;;;5026264;28;20357;-53
2023/12/06 01:41:34;;;;;;;3.22;2.90;;;19.50;32.60;;;;;;5037578;28;20037;-50
2023/12/06 01:44:00;;;;;;;4.22;3.35;;;19.50;32.60;;;;;;5048702;28;20041;-50
2023/12/06 01:46:25;;;;;;;3.60;3.00;;;19.50;32.60;;;;;;5043351;28;20034;-48
2023/12/06 01:48:54;;;;;;;4.47;3.13;;;19.50;32.60;;;;;;5041870;28;20452;-54
2023/12/06 01:51:22;;;;;;;3.65;3.13;;;19.50;32.60;;;;;;5037568;28;20119;-54
2023/12/06 01:53:48;;;;;;;3.97;3.10;;;19.50;32.60;;;;;;5034674;28;20105;-54
2023/12/06 01:56:16;;;;;;;4.00;3.25;;;19.50;32.60;;;;;;5039279;28;20075;-51
2023/12/06 01:58:42;;;;;;;3.78;2.88;;;19.50;32.60;;;;;;5044450;28;20021;-53
2023/12/06 02:01:08;;;;;;;3.20;2.90;;;19.40;32.60;;;;;;5045166;28;20052;-49
2023/12/06 02:03:35;;;;;;;3.60;2.85;;;19.40;32.60;;;;;;5049259;28;20060;-53
2023/12/06 02:06:03;;;;;;;4.68;3.38;;;19.40;32.60;;;;;;5047662;28;20037;-52
2023/12/06 02:08:34;;;;;;;4.13;2.97;;;19.40;32.60;;;;;;5043094;28;20350;-50
2023/12/06 02:10:59;;;;;;;4.30;3.38;;;19.40;32.70;;;;;;5045739;28;20099;-52
2023/12/06 02:13:27;;;;;;;4.75;3.70;;;19.40;32.70;;;;;;5046659;28;20025;-49
2023/12/06 02:15:53;;;;;;;3.92;3.20;;;19.40;32.70;;;;;;5039616;28;20509;-51
2023/12/06 02:18:20;;;;;;;4.00;3.20;;;19.40;32.70;;;;;;5040195;28;20108;-47
2023/12/06 02:20:46;;;;;;;3.58;3.00;;;19.40;32.80;;;;;;5045254;28;20032;-53
2023/12/06 02:23:13;;;;;;;4.68;3.47;;;19.40;32.80;;;;;;5042389;28;20025;-49
2023/12/06 02:25:39;;;;;;;3.97;3.33;;;19.40;32.80;;;;;;5023076;28;20029;-52
2023/12/06 02:28:05;;;;;;;4.40;3.10;;;19.40;32.80;;;;;;5046478;28;20028;-48
2023/12/06 02:30:31;;;;;;;4.38;3.35;;;19.40;32.90;;;;;;5043684;28;20034;-53
2023/12/06 02:32:57;;;;;;;4.38;3.47;;;19.40;32.90;;;;;;5035912;28;20483;-53
2023/12/06 02:35:33;;;;;;;3.90;2.88;;;19.40;32.90;;;;;;5044253;28;20071;-50
2023/12/06 02:38:01;;;;;;;3.17;2.70;;;19.40;32.90;;;;;;5039109;28;20120;-52
2023/12/06 02:40:29;;;;;;;4.28;3.20;;;19.40;32.90;;;;;;5025568;28;20020;-52
2023/12/06 02:42:55;;;;;;;4.18;3.10;;;19.30;32.90;;;;;;5037227;28;20128;-49
2023/12/06 02:45:21;;;;;;;3.92;3.05;;;19.30;32.90;;;;;;5033027;28;20030;-52
2023/12/06 02:47:46;;;;;;;4.55;2.97;;;19.40;33.00;;;;;;5032484;28;20346;-53
2023/12/06 02:50:12;;;;;;;4.07;3.10;;;19.40;33.00;;;;;;5033013;28;20048;-55
2023/12/06 02:52:38;;;;;;;3.33;2.45;;;19.30;33.00;;;;;;5032963;28;20104;-53
2023/12/06 02:55:04;;;;;;;3.83;3.03;;;19.30;33.00;;;;;;5032664;28;20026;-51
2023/12/06 02:57:30;;;;;;;4.22;3.25;;;19.30;33.10;;;;;;5032539;28;20021;-50
2023/12/06 02:59:56;;;;;;;4.32;3.42;;;19.30;33.10;;;;;;5032771;28;20314;-51
2023/12/06 03:02:22;;;;;;;4.82;3.13;;;19.30;33.10;;;;;;5032670;28;20449;-51
2023/12/06 03:04:48;;;;;;;3.63;2.92;;;19.30;33.10;;;;;;5032377;28;20112;-52
2023/12/06 03:07:14;;;;;;;4.45;3.08;;;19.30;33.10;;;;;;5032027;28;20025;-48
2023/12/06 03:09:39;;;;;;;3.30;2.72;;;19.30;33.20;;;;;;5031684;28;20495;-48
2023/12/06 03:12:07;;;;;;;3.75;3.00;;;19.30;33.20;;;;;;5015505;28;20407;-51
2023/12/06 03:14:33;;;;;;;4.13;3.13;;;19.30;33.20;;;;;;5032846;28;20025;-49
2023/12/06 03:16:59;;;;;;;3.45;3.10;;;19.30;33.20;;;;;;5035816;28;20061;-54
2023/12/06 03:19:25;;;;;;;4.75;2.97;;;19.30;33.20;;;;;;5036173;28;20289;-53
2023/12/06 03:21:50;;;;;;;4.35;3.30;;;19.30;33.20;;;;;;5033385;28;20030;-52
2023/12/06 03:24:16;;;;;;;3.45;2.80;;;19.30;33.20;;;;;;5036216;28;20025;-48
2023/12/06 03:26:42;;;;;;;4.28;3.58;;;19.30;33.30;;;;;;5036102;28;20032;-53
2023/12/06 03:29:08;;;;;;;4.07;3.10;;;19.30;33.30;;;;;;5036600;28;20057;-49
2023/12/06 03:31:34;;;;;;;3.80;3.20;;;19.30;33.30;;;;;;5036129;28;20406;-52
2023/12/06 03:34:00;;;;;;;4.07;3.03;;;19.30;33.30;;;;;;5017701;28;20361;-51
2023/12/06 03:36:25;;;;;;;4.03;3.15;;;19.20;33.30;;;;;;5036510;28;20025;-49
2023/12/06 03:38:51;;;;;;;4.18;3.22;;;19.30;33.40;;;;;;5017922;28;20056;-55
2023/12/06 03:41:19;;;;;;;4.35;3.10;;;19.20;33.40;;;;;;5018323;28;20035;-49
2023/12/06 03:43:45;;;;;;;4.38;3.30;;;19.20;33.40;;;;;;5035384;28;20240;-54
2023/12/06 03:46:11;;;;;;;3.45;2.90;;;19.30;33.40;;;;;;5036094;28;20060;-49
2023/12/06 03:48:37;;;;;;;4.25;3.38;;;19.30;33.40;;;;;;5035337;28;20041;-54
2023/12/06 03:51:04;;;;;;;3.42;2.85;;;19.20;34.00;;;;;;5036204;28;20052;-51
2023/12/06 03:53:30;;;;;;;3.67;3.17;;;19.20;33.40;;;;;;5018022;28;20033;-51
2023/12/06 03:55:56;;;;;;;4.38;3.03;;;19.20;33.40;;;;;;5035347;28;20034;-52
2023/12/06 03:58:22;;;;;;;3.70;2.97;;;19.20;33.40;;;;;;5035249;28;20421;-49
2023/12/06 04:00:48;;;;;;;3.80;2.97;;;19.20;33.50;;;;;;5017924;28;20037;-52
2023/12/06 04:03:14;;;;;;;3.20;2.58;;;19.20;33.50;;;;;;5034843;28;20033;-55
2023/12/06 04:05:44;;;;;;;3.47;2.67;;;19.20;33.50;;;;;;5017610;28;20357;-53
2023/12/06 04:08:10;;;;;;;3.75;2.58;;;19.20;33.50;;;;;;5034806;28;20109;-50
2023/12/06 04:10:37;;;;;;;3.33;2.60;;;19.20;33.50;;;;;;5035268;28;20123;-52
2023/12/06 04:13:04;;;;;;;3.53;2.63;;;19.20;33.50;;;;;;5035776;28;20113;-51
2023/12/06 04:15:31;;;;;;;3.88;2.83;;;19.20;33.60;;;;;;5034980;28;20055;-52
2023/12/06 04:17:57;;;;;;;3.78;2.90;;;19.20;33.60;;;;;;5034344;28;20091;-50
2023/12/06 04:20:23;;;;;;;3.65;2.85;;;19.20;33.60;;;;;;5035105;28;20026;-53
2023/12/06 04:22:49;;;;;;;3.90;3.05;;;19.20;33.60;;;;;;5017705;28;20028;-49
2023/12/06 04:25:15;;;;;;;3.28;2.80;;;19.20;33.60;;;;;;5035079;28;20026;-52
2023/12/06 04:27:42;;;;;;;4.15;2.95;;;19.20;33.60;;;;;;5035056;28;20068;-51
2023/12/06 04:30:10;;;;;;;3.97;3.15;;;19.20;33.70;;;;;;5032376;28;20033;-47
2023/12/06 04:32:36;;;;;;;3.58;2.72;;;19.20;33.70;;;;;;5035140;28;20030;-50
2023/12/06 04:35:02;;;;;;;3.03;2.72;;;19.10;33.70;;;;;;5034234;28;20036;-49
2023/12/06 04:37:28;;;;;;;4.28;3.00;;;19.20;33.70;;;;;;5034881;28;20033;-49
2023/12/06 04:39:54;;;;;;;3.45;2.88;;;19.10;33.70;;;;;;5032338;28;20037;-45
2023/12/06 04:42:20;;;;;;;4.63;2.90;;;19.10;33.70;;;;;;5034561;28;20049;-47
2023/12/06 04:44:46;;;;;;;4.43;2.83;;;19.10;33.80;;;;;;5034653;28;20109;-49
2023/12/06 04:47:12;;;;;;;3.95;3.10;;;19.10;33.80;;;;;;5034115;28;20514;-53
2023/12/06 04:49:38;;;;;;;4.20;2.90;;;19.10;33.80;;;;;;5034042;28;20168;-50
2023/12/06 04:52:04;;;;;;;3.13;2.50;;;19.10;33.80;;;;;;5034560;28;20140;-47
2023/12/06 04:54:30;;;;;;;3.92;2.75;;;19.10;33.80;;;;;;5034165;28;20036;-50
2023/12/06 04:56:55;;;;;;;3.42;2.60;;;19.10;33.80;;;;;;5034357;28;20034;-48
2023/12/06 04:59:21;;;;;;;2.90;2.53;;;19.10;33.90;;;;;;5034424;28;20396;-49
2023/12/06 05:01:47;;;;;;;3.22;2.20;;;19.10;33.90;;;;;;5015651;28;20149;-48
2023/12/06 05:04:14;;;;;;;2.83;2.40;;;19.10;33.90;;;;;;4998794;28;20105;-46
2023/12/06 05:06:40;;;;;;;2.45;2.17;;;19.10;33.90;;;;;;5033417;28;20044;-45
2023/12/06 05:09:07;;;;;;;3.53;2.50;;;19.10;33.90;;;;;;5033418;28;20033;-46
2023/12/06 05:11:33;;;;;;;3.45;2.38;;;19.10;34.00;;;;;;5033863;28;20068;-48
2023/12/06 05:13:59;;;;;;;2.83;2.30;;;19.10;34.00;;;;;;5034334;28;20490;-48
2023/12/06 05:16:25;;;;;;;2.92;2.35;;;19.10;34.00;;;;;;5033847;28;20151;-45
2023/12/06 05:18:51;;;;;;;2.72;2.20;;;19.10;34.00;;;;;;5032508;28;20506;-44
2023/12/06 05:21:17;;;;;;;2.72;2.33;;;19.10;34.10;;;;;;5034396;28;20044;-47
2023/12/06 05:23:43;;;;;;;2.88;2.15;;;19.10;34.10;;;;;;5033946;28;20021;-49
2023/12/06 05:26:09;;;;;;;3.95;2.40;;;19.00;34.10;;;;;;5033913;28;20436;-50
2023/12/06 05:28:35;;;;;;;3.55;2.15;;;19.10;34.20;;;;;;5033986;28;20068;-51
2023/12/06 05:31:00;;;;;;;2.55;2.15;;;19.10;34.20;;;;;;5031448;28;20048;-47
2023/12/06 05:33:27;;;;;;;3.75;2.33;;;19.00;34.10;;;;;;5033496;28;20021;-47
2023/12/06 05:35:55;;;;;;;3.25;2.22;;;19.00;34.20;;;;;;5033636;28;20021;-48
2023/12/06 05:38:22;;;;;;;2.83;1.90;;;19.10;34.20;;;;;;5033102;28;20076;-48
2023/12/06 05:40:48;;;;;;;3.03;1.90;;;19.00;34.20;;;;;;5033867;28;20030;-48
2023/12/06 05:43:14;;;;;;;2.08;1.70;;;19.00;34.20;;;;;;5033893;28;20048;-47
2023/12/06 05:45:40;;;;;;;1.95;1.75;;;19.00;34.20;;;;;;5033510;28;20025;-45
2023/12/06 05:48:06;;;;;;;2.42;1.70;;;19.00;34.20;;;;;;5032603;28;20449;-50
2023/12/06 05:50:32;;;;;;;2.28;2.00;;;19.00;34.20;;;;;;5033350;28;20036;-46
2023/12/06 05:52:58;;;;;;;2.33;1.80;;;19.00;34.30;;;;;;5033382;28;20036;-51
2023/12/06 05:55:24;;;;;;;2.28;1.83;;;19.00;34.30;;;;;;5033457;28;20116;-53
2023/12/06 05:57:50;;;;;;;2.45;1.88;;;19.00;34.30;;;;;;5033448;28;20115;-48
2023/12/06 06:00:17;;;;;;;2.58;1.90;;;19.00;34.30;;;;;;5033392;28;20090;-53
2023/12/06 06:02:43;;;;;;;2.33;1.60;;;19.00;34.30;;;;;;5015329;28;20026;-49
2023/12/06 06:05:10;;;;;;;2.88;1.55;;;19.00;34.30;;;;;;5033111;28;20018;-46
2023/12/06 06:07:36;;;;;;;2.17;1.73;;;19.00;34.30;;;;;;5032171;28;20108;-47
2023/12/06 06:10:03;;;;;;;2.33;1.60;;;19.00;34.40;;;;;;5032122;28;20040;-49
2023/12/06 06:12:29;;;;;;;1.90;1.50;;;19.00;34.40;;;;;;5033539;28;20022;-51
2023/12/06 06:14:55;;;;;;;1.90;1.60;;;19.00;34.40;;;;;;5033328;28;20021;-53
2023/12/06 06:17:21;;;;;;;2.63;1.50;;;19.00;34.40;;;;;;5031509;28;20021;-54
2023/12/06 06:19:47;;;;;;;1.83;1.35;;;19.00;34.40;;;;;;5030460;28;20021;-50
2023/12/06 06:22:13;;;;;;;1.88;1.23;;;19.00;34.50;;;;;;5033428;28;20100;-49
2023/12/06 06:24:39;;;;;;;1.83;1.40;;;19.00;34.50;;;;;;5032939;28;20091;-52
2023/12/06 06:27:05;;;;;;;1.70;1.52;;;19.00;34.50;;;;;;5033202;28;20048;-51
2023/12/06 06:29:31;;;;;;;2.97;2.00;;;19.00;34.50;;;;;;5014953;28;20033;-53
2023/12/06 06:31:56;;;;;;;1.92;1.50;;;18.90;34.50;;;;;;5015295;28;20047;-49
2023/12/06 06:34:22;;;;;;;2.10;1.48;;;18.90;34.50;;;;;;5031874;28;20025;-50
2023/12/06 06:36:48;;;;;;;2.13;1.60;;;18.90;34.50;;;;;;5033292;28;20345;-49
2023/12/06 06:39:14;;;;;;;2.17;1.58;;;18.90;35.20;;;;;;5032351;28;20125;-47
2023/12/06 06:41:40;;;;;;;2.00;1.60;;;18.90;34.60;;;;;;5015773;28;20022;-52
2023/12/06 06:44:06;;;;;;;2.45;1.50;;;18.90;34.60;;;;;;5045143;28;20447;-50
2023/12/06 06:46:32;;;;;;;2.03;1.60;;;18.90;34.60;;;;;;5048105;28;20116;-51
2023/12/06 06:48:58;;;;;;;1.63;1.35;;;18.90;34.60;;;;;;5042831;28;20029;-53
2023/12/06 06:51:36;;;;;;;2.53;1.52;;;18.90;34.60;;;;;;5043490;28;20047;-48
2023/12/06 06:54:06;;;;;;;2.00;1.73;;;18.90;34.70;;;;;;5052765;28;20021;-45
2023/12/06 06:56:33;;;;;;;1.95;1.30;;;18.90;34.70;;;;;;5053117;28;20036;-49
2023/12/06 06:58:58;;;;;;;2.65;2.00;;;18.90;34.70;;;;;;5047140;28;20029;-50
2023/12/06 07:01:24;;;;;;;2.00;1.60;;;18.90;34.80;;;;;;5038530;28;20112;-50
2023/12/06 07:03:50;;;;;;;2.78;1.90;;;18.90;34.80;;;;;;5046899;28;20061;-50
2023/12/06 07:06:16;;;;;;;2.08;1.60;;;18.90;34.80;;;;;;5044375;28;20075;-49
2023/12/06 07:08:42;;;;;;;2.63;1.90;;;18.90;34.90;;;;;;5045557;28;20029;-50
2023/12/06 07:11:08;;;;;;;2.60;1.70;;;18.90;34.90;;;;;;5046367;28;20113;-47
2023/12/06 07:13:34;;;;;;;2.58;1.85;;;18.90;34.90;;;;;;5046945;28;20029;-46
2023/12/06 07:16:01;;;;;;;2.50;1.80;;;18.90;34.90;;;;;;5049093;28;20167;-45
2023/12/06 07:18:27;;;;;;;2.45;1.88;;;18.90;35.00;;;;;;5045589;28;20448;-47
2023/12/06 07:20:53;;;;;;;3.22;1.63;;;18.90;35.10;;;;;;5027889;28;20041;-52
2023/12/06 07:23:19;;;;;;;2.28;1.58;;;18.90;35.10;;;;;;5046955;28;20119;-46
2023/12/06 07:25:46;;;;;;;1.85;1.48;;;18.90;35.20;;;;;;5039718;28;20041;-48
2023/12/06 07:28:13;;;;;;;1.88;1.58;;;18.90;35.20;;;;;;5039684;28;20099;-47
2023/12/06 07:30:42;;;;;;;2.30;1.60;;;18.90;35.30;;;;;;5040619;28;20072;-57
2023/12/06 07:33:08;;;;;;;2.65;1.50;;;18.90;35.30;;;;;;5037556;28;20033;-55
2023/12/06 07:35:35;;;;;;;2.22;1.70;;;18.90;35.30;;;;;;5052385;28;20094;-49
2023/12/06 07:38:02;;;;;;;3.88;2.20;;;18.90;35.30;;;;;;5024776;28;20033;-53
2023/12/06 07:40:28;;;;;;;2.80;1.75;;;18.90;35.30;;;;;;5040311;28;20025;-53
2023/12/06 07:42:55;;;;;;;2.10;1.50;;;18.90;35.30;;;;;;5050754;28;20049;-53
2023/12/06 07:45:21;;;;;;;2.65;1.70;;;18.90;35.30;;;;;;5029953;28;20036;-48
2023/12/06 07:47:48;;;;;;;2.55;1.77;;;19.00;35.30;;;;;;5043280;28;20029;-50
2023/12/06 07:50:14;;;;;;;2.05;1.63;;;19.00;35.30;;;;;;5040011;28;20125;-52
2023/12/06 07:52:40;;;;;;;2.97;1.77;;;19.00;35.20;;;;;;5039774;28;20103;-48
2023/12/06 07:55:06;;;;;;;3.03;1.70;;;19.10;35.20;;;;;;5045768;28;20032;-49
2023/12/06 07:57:36;;;;;;;2.90;2.03;;;19.10;35.20;;;;;;5041895;28;20382;-52
2023/12/06 08:00:13;;;;;;;3.38;1.90;;;19.20;35.20;;;;;;5045721;28;20350;-55
2023/12/06 08:02:39;;;;;;;2.33;1.60;;;19.20;35.10;;;;;;5041980;28;20036;-53
2023/12/06 08:05:07;;;;;;;3.15;1.67;;;19.30;35.10;;;;;;5039321;28;20026;-55
2023/12/06 08:07:33;;;;;;;3.08;2.08;;;19.30;35.10;;;;;;5040425;28;20104;-51
2023/12/06 08:10:00;;;;;;;2.60;1.52;;;19.30;35.00;;;;;;5048467;28;20037;-49
2023/12/06 08:12:26;;;;;;;2.90;1.70;;;19.30;35.00;;;;;;5040474;28;20026;-53
2023/12/06 08:14:52;;;;;;;2.45;1.58;;;19.40;35.00;;;;;;5025661;28;20021;-51
2023/12/06 08:17:18;;;;;;;2.28;1.58;;;19.50;35.00;;;;;;5045426;28;20036;-54
2023/12/06 08:19:44;;;;;;;2.50;1.60;;;19.50;35.10;;;;;;5045674;28;20061;-47
2023/12/06 08:22:09;;;;;;;2.00;1.60;;;19.50;35.00;;;;;;5042576;28;20033;-53
2023/12/06 08:24:35;;;;;;;2.92;1.70;;;19.50;35.00;;;;;;5047301;28;20025;-46
2023/12/06 08:27:01;;;;;;;2.17;1.67;;;19.60;35.00;;;;;;5037952;28;20033;-47
2023/12/06 08:29:27;;;;;;;3.17;1.77;;;19.60;35.10;;;;;;5052198;28;20165;-57
2023/12/06 08:31:53;;;;;;;3.80;2.25;;;19.70;35.20;;;;;;5039668;28;20037;-45
2023/12/06 08:34:20;;;;;;;1.70;1.50;;;19.70;35.20;;;;;;5047663;28;20017;-46
2023/12/06 08:36:46;;;;;;;2.28;1.77;;;19.80;35.30;;;;;;5034269;28;20032;-55
2023/12/06 08:39:12;;;;;;;2.65;1.88;;;19.80;35.20;;;;;;5046893;28;20040;-47
2023/12/06 08:41:38;;;;;;;2.40;1.95;;;19.80;35.20;;;;;;5051129;28;20028;-48
2023/12/06 08:44:04;;;;;;;2.00;1.60;;;19.80;35.20;;;;;;5047842;28;20037;-48
2023/12/06 08:46:31;;;;;;;3.05;1.95;;;19.80;35.10;;;;;;5050514;28;20322;-45
2023/12/06 08:48:57;;;;;;;2.95;1.98;;;19.90;35.20;;;;;;5044613;28;20045;-48
2023/12/06 08:51:23;;;;;;;2.00;1.58;;;19.90;35.10;;;;;;5045081;28;20038;-53
2023/12/06 08:53:49;;;;;;;3.63;1.80;;;19.90;35.10;;;;;;5047765;28;20353;-45
2023/12/06 08:56:15;;;;;;;3.10;2.00;;;19.90;35.00;;;;;;5035883;28;20033;-50
2023/12/06 08:58:41;;;;;;;2.25;1.50;;;20.00;35.00;;;;;;5050535;28;20025;-48
2023/12/06 09:01:07;;;;;;;3.38;1.88;;;19.90;34.90;;;;;;5045483;28;20107;-46
2023/12/06 09:03:33;;;;;;;2.78;1.70;;;19.90;34.90;;;;;;5036832;28;20033;-52
2023/12/06 09:05:58;;;;;;;3.33;1.70;;;20.00;34.90;;;;;;5036234;28;20377;-51
2023/12/06 09:08:25;;;;;;;2.70;1.88;;;20.00;34.80;;;;;;5023179;28;20037;-48
2023/12/06 09:10:51;;;;;;;1.90;1.40;;;20.00;34.80;;;;;;5044714;28;20103;-46
2023/12/06 09:13:17;;;;;;;2.08;1.45;;;20.00;34.80;;;;;;5051877;28;20025;-50
2023/12/06 09:15:43;;;;;;;2.20;1.55;;;20.00;34.70;;;;;;5046784;28;20025;-53
2023/12/06 09:18:08;;;;;;;2.55;1.60;;;20.00;34.70;;;;;;5039713;28;20113;-46
2023/12/06 09:20:34;;;;;;;4.13;1.70;;;20.00;34.70;;;;;;5033456;28;20159;-44
2023/12/06 09:23:00;;;;;;;2.28;1.65;;;20.00;34.70;;;;;;5035613;28;20460;-46
2023/12/06 09:25:26;;;;;;;3.20;2.00;;;20.00;34.70;;;;;;5046101;28;20060;-46
2023/12/06 09:27:52;;;;;;;2.33;1.63;;;20.00;34.70;;;;;;5050819;28;20042;-51
2023/12/06 09:30:18;;;;;;;2.47;1.40;;;20.00;34.70;;;;;;5042809;28;20036;-50
2023/12/06 09:32:45;;;;;;;2.72;1.48;;;20.00;34.70;;;;;;5039464;28;20040;-45
2023/12/06 09:35:11;;;;;;;2.28;1.73;;;20.00;34.70;;;;;;5035929;28;20073;-53
2023/12/06 09:37:37;;;;;;;2.95;1.70;;;20.00;34.70;;;;;;5017731;28;20061;-47
2023/12/06 09:40:04;;;;;;;3.42;1.67;;;20.00;34.80;;;;;;5035719;28;20029;-44
2023/12/06 09:42:32;;;;;;;2.63;1.50;;;20.00;34.80;;;;;;5045048;28;20361;-47
2023/12/06 09:44:57;;;;;;;2.53;1.83;;;20.00;34.80;;;;;;5038448;28;20033;-52
2023/12/06 09:47:24;;;;;;;2.30;1.70;;;20.00;34.80;;;;;;5046171;28;20040;-50
2023/12/06 09:49:50;;;;;;;2.10;1.60;;;20.00;34.90;;;;;;5048318;28;20049;-47
2023/12/06 09:52:21;;;;;;;2.95;1.88;;;20.00;34.90;;;;;;5040822;28;20037;-48
2023/12/06 09:54:48;;;;;;;2.08;1.35;;;20.00;35.00;;;;;;5039104;28;20060;-50
2023/12/06 09:57:16;;;;;;;1.60;1.27;;;20.00;35.00;;;;;;5035352;28;20087;-48
2023/12/06 09:59:41;;;;;;;1.50;1.35;;;20.00;35.10;;;;;;5041602;28;20020;-49
2023/12/06 10:02:08;;;;;;;2.85;1.52;;;20.00;35.10;;;;;;5050407;28;20035;-48
2023/12/06 10:04:37;;;;;;;3.08;1.80;;;20.00;35.10;;;;;;5034172;28;20029;-50
2023/12/06 10:07:03;;;;;;;2.10;1.40;;;20.00;35.10;;;;;;5050008;28;20036;-49
2023/12/06 10:09:29;;;;;;;2.65;1.67;;;20.00;35.10;;;;;;5049052;28;20487;-48
2023/12/06 10:12:10;;;;;;;2.28;1.60;;;20.00;35.10;;;;;;5034880;28;20041;-47
2023/12/06 10:14:36;;;;;;;2.35;1.50;;;20.00;35.10;;;;;;5049981;28;20030;-52
2023/12/06 10:17:03;;;;;;;1.80;1.50;;;20.00;35.10;;;;;;5021284;28;20052;-48
2023/12/06 10:19:32;;;;;;;2.17;1.50;;;20.00;35.10;;;;;;5042600;28;20108;-51
2023/12/06 10:21:59;;;;;;;2.38;1.40;;;20.00;35.10;;;;;;5034613;28;20025;-50
2023/12/06 10:24:26;;;;;;;2.08;1.48;;;20.00;35.10;;;;;;5042607;28;20025;-49
2023/12/06 10:27:11;;;;;;;3.35;1.27;;;20.00;35.10;;;;;;5039179;28;20029;-52
2023/12/06 10:29:37;;;;;;;2.45;1.30;;;20.00;35.20;;;;;;5018822;28;20029;-49
2023/12/06 10:32:03;;;;;;;2.70;1.40;;;20.00;35.20;;;;;;5038422;28;20115;-47
2023/12/06 10:34:31;;;;;;;2.40;1.80;;;20.00;35.30;;;;;;5042682;28;20033;-57
2023/12/06 10:36:59;;;;;;;1.70;1.23;;;20.10;35.40;;;;;;5016586;28;20036;-52
2023/12/06 10:39:29;;;;;;;2.38;1.50;;;20.10;35.40;;;;;;5040045;28;20064;-49
2023/12/06 10:41:59;;;;;;;4.93;1.60;;;20.10;35.40;;;;;;5042160;28;20029;-52
2023/12/06 10:44:25;;;;;;;1.80;1.48;;;20.20;35.40;;;;;;5030654;28;20154;-46
2023/12/06 10:46:53;;;;;;;2.20;1.55;;;20.20;35.30;;;;;;5034320;28;20048;-45
2023/12/06 10:49:19;;;;;;;1.92;1.30;;;20.20;35.30;;;;;;5016437;28;20041;-47
2023/12/06 10:51:46;;;;;;;2.58;1.40;;;20.30;35.30;;;;;;5034871;28;20052;-48
2023/12/06 10:54:13;;;;;;;2.13;1.50;;;20.30;35.20;;;;;;5035007;28;20356;-45
2023/12/06 10:56:39;;;;;;;1.88;1.67;;;20.30;35.20;;;;;;5035691;28;20087;-47
2023/12/06 10:59:09;;;;;;;1.75;1.38;;;20.30;35.10;;;;;;5034466;28;20460;-49
2023/12/06 11:01:35;;;;;;;2.30;1.63;;;20.30;35.10;;;;;;5034598;28;20029;-49
2023/12/06 11:04:02;;;;;;;1.95;1.42;;;20.30;35.10;;;;;;5034555;28;20041;-51
2023/12/06 11:06:43;;;;;;;2.38;1.63;;;20.30;35.10;;;;;;5034628;28;20025;-47
2023/12/06 11:09:15;;;;;;;1.83;1.30;;;20.30;35.00;;;;;;5031881;28;20033;-52
2023/12/06 11:12:19;;;;;;;2.22;1.55;;;20.30;35.00;;;;;;5016220;28;20065;-52
2023/12/06 11:15:14;;;;;;;2.58;1.38;;;20.30;35.00;;;;;;5034357;28;20025;-53
2023/12/06 11:17:43;;;;;;;2.22;1.60;;;20.30;35.10;;;;;;5033194;28;20040;-49
2023/12/06 11:20:10;;;;;;;3.95;1.60;;;20.30;35.10;;;;;;5030340;28;20334;-55
2023/12/06 11:22:37;;;;;;;3.20;1.80;;;20.30;35.20;;;;;;5032285;28;20124;-53
2023/12/06 11:25:04;;;;;;;3.03;1.70;;;20.30;35.20;;;;;;5033705;28;20033;-55
2023/12/06 11:27:30;;;;;;;2.88;1.63;;;20.30;35.30;;;;;;5033065;28;20071;-53
2023/12/06 11:29:56;;;;;;;2.58;1.80;;;20.30;35.40;;;;;;5034027;28;20064;-49
2023/12/06 11:32:22;;;;;;;1.83;1.30;;;20.30;35.50;;;;;;5033483;28;20131;-55
2023/12/06 11:34:55;;;;;;;2.22;1.50;;;20.30;35.50;;;;;;5015880;28;20056;-54
2023/12/06 11:37:22;;;;;;;1.92;1.23;;;20.30;35.50;;;;;;5035525;28;20034;-53
2023/12/06 11:40:18;;;;;;;1.65;1.30;;;20.30;35.60;;;;;;5019167;28;20057;-48
2023/12/06 11:43:10;;;;;;;1.60;1.30;;;20.30;35.60;;;;;;5036081;28;20049;-49
2023/12/06 11:45:38;;;;;;;1.33;1.23;;;20.30;35.60;;;;;;5031529;28;21473;-50
2023/12/06 11:48:05;;;;;;;1.67;1.40;;;20.30;35.70;;;;;;5035421;28;20025;-49
2023/12/06 11:50:45;;;;;;;2.40;1.20;;;20.30;35.70;;;;;;5035081;28;20044;-51
2023/12/06 11:53:12;;;;;;;1.75;1.30;;;20.30;35.70;;;;;;5035708;28;20112;-55
2023/12/06 11:55:40;;;;;;;2.28;1.35;;;20.30;35.70;;;;;;5034805;28;20399;-48
2023/12/06 11:58:10;;;;;;;4.20;1.30;;;20.30;35.80;;;;;;5034945;28;20029;-45
2023/12/06 12:00:41;;;;;;;2.38;1.38;;;20.30;35.70;;;;;;5035332;28;20029;-51
2023/12/06 12:03:07;;;;;;;3.70;1.38;;;20.30;35.70;;;;;;5036035;28;20029;-49
2023/12/06 12:05:33;;;;;;;2.10;1.40;;;20.30;35.60;;;;;;5036321;28;20029;-48
2023/12/06 12:08:02;;;;;;;2.20;1.55;;;20.30;35.50;;;;;;5035390;28;20029;-49
2023/12/06 12:10:28;;;;;;;2.30;1.50;;;20.30;35.50;;;;;;5033639;28;20034;-49
2023/12/06 12:12:55;;;;;;;1.95;1.33;;;20.30;35.40;;;;;;5035963;28;20084;-51
2023/12/06 12:15:23;;;;;;;3.13;1.40;;;20.30;35.30;;;;;;5035712;28;20022;-50
2023/12/06 12:17:49;;;;;;;3.15;1.40;;;20.30;35.20;;;;;;5014742;28;20040;-50
2023/12/06 12:20:15;;;;;;;2.35;1.25;;;20.30;35.20;;;;;;5036079;28;20025;-50
2023/12/06 12:22:49;;;;;;;1.70;1.40;;;20.30;35.10;;;;;;5036139;28;20033;-52
2023/12/06 12:25:16;;;;;;;2.20;1.50;;;20.30;35.10;;;;;;5036103;28;20017;-47
2023/12/06 12:27:47;;;;;;;2.05;1.40;;;20.20;35.00;;;;;;5018610;28;20104;-48
2023/12/06 12:30:14;;;;;;;2.25;1.38;;;20.30;35.10;;;;;;5036208;28;20449;-44
2023/12/06 12:32:52;;;;;;;1.42;1.00;;;20.20;35.00;;;;;;5035868;28;20120;-46
2023/12/06 12:35:19;;;;;;;1.40;1.10;;;20.20;34.90;;;;;;5035585;28;20026;-46
2023/12/06 12:37:46;;;;;;;1.77;1.27;;;20.20;34.90;;;;;;5035940;28;20017;-48
2023/12/06 12:40:13;;;;;;;2.22;1.65;;;20.20;34.90;;;;;;5036263;28;20029;-50
2023/12/06 12:42:40;;;;;;;1.60;1.30;;;20.20;34.90;;;;;;5035119;28;20125;-54
2023/12/06 12:45:17;;;;;;;2.03;1.40;;;20.20;34.80;;;;;;5035563;28;20104;-52
2023/12/06 12:47:43;;;;;;;1.70;1.50;;;20.20;34.80;;;;;;5034879;28;20440;-54